createdAt,value
2017-12-31T00:02:23.924Z,99702.00
2017-12-31T00:04:51.460Z,99699.98
2017-12-31T00:07:19.039Z,99705.45
2017-12-31T00:09:46.585Z,99702.45
2017-12-31T00:12:14.186Z,99695.81
2017-12-31T00:14:41.741Z,99696.97
2017-12-31T00:17:09.264Z,99695.00
2017-12-31T00:19:36.829Z,99694.03
2017-12-31T00:22:04.453Z,99692.31
2017-12-31T00:24:32.069Z,99697.06
2017-12-31T00:26:59.599Z,99701.03
2017-12-31T00:29:27.197Z,99695.06
2017-12-31T00:31:54.717Z,99689.17
2017-12-31T00:34:22.361Z,99688.11
2017-12-31T00:36:49.919Z,99691.16
2017-12-31T00:39:17.513Z,99691.01
2017-12-31T00:41:45.063Z,99687.33
2017-12-31T00:44:12.678Z,99682.58
2017-12-31T00:46:40.298Z,99679.06
2017-12-31T00:49:07.811Z,99674.17
2017-12-31T00:51:35.319Z,99670.94
2017-12-31T00:54:02.897Z,99662.16
2017-12-31T00:56:30.418Z,99659.53
2017-12-31T00:58:57.987Z,99672.05
2017-12-31T01:01:25.585Z,99672.05
2017-12-31T01:03:53.136Z,99673.72
2017-12-31T01:06:20.873Z,99670.88
2017-12-31T01:08:48.425Z,99668.03
2017-12-31T01:11:15.998Z,99668.08
2017-12-31T01:13:43.589Z,99666.63
2017-12-31T01:16:11.130Z,99671.67
2017-12-31T01:18:38.681Z,99666.33
2017-12-31T01:21:06.269Z,99674.95
2017-12-31T01:23:33.787Z,99677.47
2017-12-31T01:26:01.496Z,99676.80
2017-12-31T01:28:29.010Z,99675.63
2017-12-31T01:30:56.563Z,99675.06
2017-12-31T01:33:24.109Z,99673.91
2017-12-31T01:35:54.546Z,99676.27
2017-12-31T01:38:22.122Z,99684.12
2017-12-31T01:40:49.647Z,99686.11
2017-12-31T01:43:17.380Z,99692.69
2017-12-31T01:45:44.931Z,99697.27
2017-12-31T01:48:12.505Z,99697.06
2017-12-31T01:50:40.116Z,99691.42
2017-12-31T01:53:07.888Z,99686.05
2017-12-31T01:55:35.658Z,99689.98
2017-12-31T01:58:03.195Z,99686.14
2017-12-31T02:00:30.720Z,99677.09
2017-12-31T02:02:58.291Z,99682.42
2017-12-31T02:05:28.028Z,99682.70
2017-12-31T02:07:55.557Z,99683.25
2017-12-31T02:10:23.227Z,99687.80
2017-12-31T02:12:50.779Z,99685.95
2017-12-31T02:15:18.316Z,99677.75
2017-12-31T02:17:45.850Z,99691.30
2017-12-31T02:20:13.500Z,99678.14
2017-12-31T02:22:41.202Z,99677.44
2017-12-31T02:25:08.750Z,99671.91
2017-12-31T02:27:36.292Z,99671.78
2017-12-31T02:30:03.875Z,99664.23
2017-12-31T02:32:31.421Z,99673.66
2017-12-31T02:34:58.970Z,99669.39
2017-12-31T02:37:26.546Z,99661.07
2017-12-31T02:39:54.074Z,99672.22
2017-12-31T02:42:21.898Z,99669.81
2017-12-31T02:44:49.465Z,99671.16
2017-12-31T02:47:16.984Z,99665.37
2017-12-31T02:49:44.517Z,99662.98
2017-12-31T02:52:12.084Z,99656.14
2017-12-31T02:54:39.641Z,99648.44
2017-12-31T02:57:07.234Z,99641.91
2017-12-31T02:59:34.782Z,99640.29
2017-12-31T03:02:02.336Z,99644.39
2017-12-31T03:04:29.892Z,99644.34
2017-12-31T03:06:57.414Z,99645.30
2017-12-31T03:09:24.986Z,99644.66
2017-12-31T03:11:52.541Z,99638.74
2017-12-31T03:14:20.350Z,99638.25
2017-12-31T03:16:47.905Z,99642.06
2017-12-31T03:19:15.464Z,99632.67
2017-12-31T03:21:43.059Z,99635.37
2017-12-31T03:24:10.610Z,99628.45
2017-12-31T03:26:38.197Z,99631.97
2017-12-31T03:29:05.728Z,99626.58
2017-12-31T03:31:33.291Z,99625.72
2017-12-31T03:34:00.864Z,99624.41
2017-12-31T03:36:28.459Z,99615.84
2017-12-31T03:38:56.021Z,99610.11
2017-12-31T03:41:23.724Z,99604.33
2017-12-31T03:43:51.284Z,99601.04
2017-12-31T03:46:18.862Z,99597.47
2017-12-31T03:48:46.417Z,99595.80
2017-12-31T03:51:14.187Z,99592.02
2017-12-31T03:53:41.781Z,99581.98
2017-12-31T03:56:09.349Z,99581.36
2017-12-31T03:58:36.914Z,99581.00
2017-12-31T04:01:04.462Z,99572.50
2017-12-31T04:03:31.980Z,99577.94
2017-12-31T04:05:59.532Z,99567.89
2017-12-31T04:08:27.047Z,99564.56
2017-12-31T04:10:54.617Z,99560.75
2017-12-31T04:13:22.308Z,99562.59
2017-12-31T04:15:49.866Z,99555.26
2017-12-31T04:18:17.390Z,99549.33
2017-12-31T04:20:44.927Z,99542.85
2017-12-31T04:23:12.457Z,99538.89
2017-12-31T04:25:40.036Z,99535.56
2017-12-31T04:28:07.562Z,99532.95
2017-12-31T04:30:35.107Z,99525.56
2017-12-31T04:33:02.682Z,99530.59
2017-12-31T04:35:30.338Z,99531.10
2017-12-31T04:37:57.873Z,99526.77
2017-12-31T04:40:25.418Z,99522.55
2017-12-31T04:42:53.019Z,99527.35
2017-12-31T04:45:20.572Z,99532.09
2017-12-31T04:47:48.095Z,99516.03
2017-12-31T04:50:15.670Z,99535.23
2017-12-31T04:52:43.194Z,99517.30
2017-12-31T04:55:10.706Z,99509.67
2017-12-31T04:57:38.318Z,99507.73
2017-12-31T05:00:05.839Z,99516.00
2017-12-31T05:02:33.400Z,99497.55
2017-12-31T05:05:00.972Z,99498.23
2017-12-31T05:07:28.618Z,99495.14
2017-12-31T05:09:56.556Z,99484.71
2017-12-31T05:12:24.160Z,99486.31
2017-12-31T05:14:51.711Z,99470.70
2017-12-31T05:17:19.269Z,99467.70
2017-12-31T05:19:46.870Z,99468.44
2017-12-31T05:22:14.551Z,99460.17
2017-12-31T05:24:42.077Z,99455.57
2017-12-31T05:27:09.640Z,99447.56
2017-12-31T05:29:37.213Z,99444.23
2017-12-31T05:32:04.765Z,99447.03
2017-12-31T05:34:32.376Z,99450.08
2017-12-31T05:36:59.924Z,99445.73
2017-12-31T05:39:27.471Z,99449.25
2017-12-31T05:41:55.023Z,99445.44
2017-12-31T05:44:22.574Z,99423.34
2017-12-31T05:46:50.137Z,99435.64
2017-12-31T05:49:17.693Z,99426.32
2017-12-31T05:51:45.204Z,99422.27
2017-12-31T05:54:12.748Z,99424.53
2017-12-31T05:56:40.268Z,99417.91
2017-12-31T05:59:07.828Z,99409.13
2017-12-31T06:01:35.344Z,99401.80
2017-12-31T06:04:02.953Z,99396.25
2017-12-31T06:06:30.550Z,99398.29
2017-12-31T06:08:58.082Z,99391.53
2017-12-31T06:11:25.685Z,99395.70
2017-12-31T06:13:53.217Z,99385.44
2017-12-31T06:16:20.765Z,99378.72
2017-12-31T06:18:48.336Z,99374.99
2017-12-31T06:21:15.855Z,99373.18
2017-12-31T06:23:43.473Z,99376.75
2017-12-31T06:26:11.098Z,99368.03
2017-12-31T06:28:38.693Z,99362.78
2017-12-31T06:31:06.212Z,99366.41
2017-12-31T06:33:33.779Z,99365.84
2017-12-31T06:36:01.415Z,99362.95
2017-12-31T06:38:28.940Z,99352.09
2017-12-31T06:40:56.485Z,99354.14
2017-12-31T06:43:24.107Z,99352.92
2017-12-31T06:45:51.669Z,99355.42
2017-12-31T06:48:19.214Z,99348.59
2017-12-31T06:50:46.767Z,99342.11
2017-12-31T06:53:14.316Z,99353.09
2017-12-31T06:55:41.874Z,99348.98
2017-12-31T06:58:09.461Z,99347.00
2017-12-31T07:00:37.070Z,99342.28
2017-12-31T07:03:04.853Z,99329.02
2017-12-31T07:05:32.367Z,99339.30
2017-12-31T07:07:59.905Z,99331.94
2017-12-31T07:10:27.472Z,99338.47
2017-12-31T07:12:55.026Z,99331.64
2017-12-31T07:15:22.564Z,99337.64
2017-12-31T07:17:50.139Z,99332.55
2017-12-31T07:20:17.687Z,99333.13
2017-12-31T07:22:45.432Z,99344.08
2017-12-31T07:25:13.041Z,99331.05
2017-12-31T07:27:40.607Z,99333.19
2017-12-31T07:30:08.125Z,99346.53
2017-12-31T07:32:35.750Z,99329.59
2017-12-31T07:35:03.283Z,99348.72
2017-12-31T07:37:30.850Z,99343.16
2017-12-31T07:39:58.413Z,99350.96
2017-12-31T07:42:25.969Z,99342.36
2017-12-31T07:44:53.685Z,99338.88
2017-12-31T07:47:21.244Z,99343.36
2017-12-31T07:49:48.834Z,99345.82
2017-12-31T07:52:16.415Z,99338.09
2017-12-31T07:54:43.994Z,99340.52
2017-12-31T07:57:11.548Z,99350.71
2017-12-31T07:59:39.145Z,99326.89
2017-12-31T08:02:06.731Z,99349.27
2017-12-31T08:04:34.380Z,99341.78
2017-12-31T08:07:02.005Z,99352.92
2017-12-31T08:09:29.590Z,99356.68
2017-12-31T08:11:57.187Z,99360.27
2017-12-31T08:14:24.804Z,99344.94
2017-12-31T08:16:52.326Z,99344.66
2017-12-31T08:19:19.910Z,99354.86
2017-12-31T08:21:47.491Z,99351.89
2017-12-31T08:24:15.048Z,99353.11
2017-12-31T08:26:42.596Z,99367.45
2017-12-31T08:29:10.190Z,99358.12
2017-12-31T08:31:37.715Z,99355.10
2017-12-31T08:34:05.250Z,99347.66
2017-12-31T08:36:32.825Z,99355.94
2017-12-31T08:39:00.439Z,99359.16
2017-12-31T08:41:27.951Z,99353.33
2017-12-31T08:43:55.463Z,99358.52
2017-12-31T08:46:23.066Z,99351.77
2017-12-31T08:48:50.611Z,99347.44
2017-12-31T08:51:18.144Z,99343.61
2017-12-31T08:53:45.696Z,99339.14
2017-12-31T08:56:13.208Z,99348.08
2017-12-31T09:00:35.949Z,99332.02
2017-12-31T09:03:03.516Z,99338.00
2017-12-31T09:05:31.240Z,99336.23
2017-12-31T09:07:58.865Z,99340.27
2017-12-31T09:10:26.385Z,99341.34
2017-12-31T09:12:53.928Z,99339.52
2017-12-31T09:15:21.545Z,99342.28
2017-12-31T09:17:49.067Z,99337.50
2017-12-31T09:20:16.599Z,99325.94
2017-12-31T09:22:44.202Z,99323.17
2017-12-31T09:25:11.933Z,99318.41
2017-12-31T09:27:39.437Z,99327.00
2017-12-31T09:30:06.957Z,99327.00
2017-12-31T09:32:34.556Z,99312.34
2017-12-31T09:35:02.075Z,99321.81
2017-12-31T09:37:29.622Z,99320.16
2017-12-31T09:39:57.205Z,99336.48
2017-12-31T09:42:24.752Z,99351.00
2017-12-31T09:44:52.318Z,99345.30
2017-12-31T09:47:19.814Z,99328.84
2017-12-31T09:49:47.361Z,99330.91
2017-12-31T09:52:15.080Z,99341.41
2017-12-31T09:54:42.656Z,99343.16
2017-12-31T09:57:10.287Z,99340.29
2017-12-31T09:59:37.795Z,99343.38
2017-12-31T10:02:05.313Z,99343.33
2017-12-31T10:04:32.852Z,99332.19
2017-12-31T10:07:00.365Z,99314.66
2017-12-31T10:09:27.895Z,99316.08
2017-12-31T10:11:55.412Z,99307.67
2017-12-31T10:14:22.957Z,99300.41
2017-12-31T10:16:50.520Z,99295.19
2017-12-31T10:19:18.032Z,99289.65
2017-12-31T10:21:46.439Z,99285.93
2017-12-31T10:24:13.977Z,99273.42
2017-12-31T10:26:41.657Z,99281.77
2017-12-31T10:29:09.232Z,99284.05
2017-12-31T10:31:36.877Z,99280.78
2017-12-31T10:34:04.415Z,99276.55
2017-12-31T10:36:32.052Z,99266.50
2017-12-31T10:38:59.605Z,99270.33
2017-12-31T10:41:27.148Z,99263.06
2017-12-31T10:43:54.712Z,99261.30
2017-12-31T10:46:22.279Z,99282.78
2017-12-31T10:48:52.432Z,99262.70
2017-12-31T10:51:20.173Z,99256.69
2017-12-31T10:53:47.748Z,99254.37
2017-12-31T10:56:15.460Z,99255.50
2017-12-31T10:58:42.995Z,99239.97
2017-12-31T11:01:10.805Z,99247.61
2017-12-31T11:03:38.324Z,99256.73
2017-12-31T11:06:05.901Z,99249.03
2017-12-31T11:08:33.423Z,99245.77
2017-12-31T11:11:01.031Z,99223.61
2017-12-31T11:13:28.568Z,99226.08
2017-12-31T11:15:56.137Z,99224.22
2017-12-31T11:18:24.383Z,99203.95
2017-12-31T11:20:51.957Z,99208.06
2017-12-31T11:23:19.504Z,99208.83
2017-12-31T11:25:47.032Z,99201.19
2017-12-31T11:28:14.887Z,99192.30
2017-12-31T11:30:42.447Z,99196.33
2017-12-31T11:33:09.953Z,99199.52
2017-12-31T11:35:37.515Z,99188.83
2017-12-31T11:38:05.052Z,99212.95
2017-12-31T11:40:32.563Z,99199.73
2017-12-31T11:43:00.100Z,99193.56
2017-12-31T11:45:27.612Z,99193.84
2017-12-31T11:47:55.148Z,99182.88
2017-12-31T11:50:22.684Z,99177.67
2017-12-31T11:52:50.215Z,99181.41
2017-12-31T11:55:17.732Z,99176.90
2017-12-31T12:00:12.306Z,99167.38
2017-12-31T12:02:39.848Z,99160.23
2017-12-31T12:05:07.455Z,99153.80
2017-12-31T12:07:34.967Z,99150.39
2017-12-31T12:10:02.610Z,99161.27
2017-12-31T12:12:30.192Z,99156.76
2017-12-31T12:14:57.699Z,99156.13
2017-12-31T12:17:25.215Z,99166.42
2017-12-31T12:19:52.787Z,99158.23
2017-12-31T12:22:20.344Z,99167.55
2017-12-31T12:24:47.888Z,99169.81
2017-12-31T12:27:15.428Z,99168.15
2017-12-31T12:29:43.038Z,99170.31
2017-12-31T12:32:10.575Z,99168.81
2017-12-31T12:34:38.087Z,99182.00
2017-12-31T12:37:05.688Z,99181.16
2017-12-31T12:39:33.264Z,99175.14
2017-12-31T12:42:00.800Z,99182.84
2017-12-31T12:44:28.369Z,99176.77
2017-12-31T12:46:56.138Z,99173.46
2017-12-31T12:49:23.766Z,99169.48
2017-12-31T12:51:51.310Z,99165.69
2017-12-31T12:54:19.012Z,99173.62
2017-12-31T12:56:46.569Z,99154.33
2017-12-31T12:59:14.258Z,99166.06
2017-12-31T13:01:41.849Z,99148.45
2017-12-31T13:04:09.383Z,99143.99
2017-12-31T13:06:36.962Z,99154.42
2017-12-31T13:09:04.592Z,99142.88
2017-12-31T13:11:32.267Z,99133.98
2017-12-31T13:13:59.840Z,99140.76
2017-12-31T13:16:27.415Z,99133.86
2017-12-31T13:18:54.950Z,99121.41
2017-12-31T13:21:22.581Z,99132.09
2017-12-31T13:23:50.156Z,99131.95
2017-12-31T13:26:17.733Z,99124.87
2017-12-31T13:28:45.257Z,99117.94
2017-12-31T13:31:12.828Z,99119.52
2017-12-31T13:33:40.379Z,99118.58
2017-12-31T13:36:07.941Z,99100.25
2017-12-31T13:38:35.551Z,99117.01
2017-12-31T13:41:03.087Z,99110.92
2017-12-31T13:43:31.596Z,99106.25
2017-12-31T13:45:59.127Z,99104.79
2017-12-31T13:48:26.672Z,99103.25
2017-12-31T13:50:54.202Z,99105.78
2017-12-31T13:53:21.765Z,99108.03
2017-12-31T13:55:49.326Z,99109.28
2017-12-31T13:58:16.879Z,99113.28
2017-12-31T14:00:44.458Z,99116.41
2017-12-31T14:03:12.004Z,99119.20
2017-12-31T14:05:39.588Z,99120.91
2017-12-31T14:08:07.291Z,99125.72
2017-12-31T14:10:34.808Z,99131.22
2017-12-31T14:13:02.349Z,99128.52
2017-12-31T14:15:29.948Z,99122.88
2017-12-31T14:17:57.525Z,99122.94
2017-12-31T14:20:25.209Z,99122.53
2017-12-31T14:22:52.842Z,99122.52
2017-12-31T14:25:20.380Z,99114.34
2017-12-31T14:27:47.882Z,99128.45
2017-12-31T14:30:15.426Z,99123.67
2017-12-31T14:32:42.951Z,99124.92
2017-12-31T14:35:10.511Z,99112.69
2017-12-31T14:37:38.115Z,99118.31
2017-12-31T14:40:05.687Z,99124.37
2017-12-31T14:42:33.224Z,99121.86
2017-12-31T14:45:00.788Z,99128.22
2017-12-31T14:47:28.412Z,99126.51
2017-12-31T14:49:56.022Z,99115.59
2017-12-31T14:52:23.581Z,99115.39
2017-12-31T14:54:51.528Z,99112.02
2017-12-31T14:57:19.057Z,99120.55
2017-12-31T14:59:46.576Z,99114.05
2017-12-31T15:02:14.142Z,99114.12
2017-12-31T15:04:41.663Z,99115.72
2017-12-31T15:07:09.213Z,99114.22
2017-12-31T15:09:36.872Z,99125.53
2017-12-31T15:12:04.435Z,99121.12
2017-12-31T15:14:31.979Z,99125.11
2017-12-31T15:16:59.566Z,99127.70
2017-12-31T15:19:27.168Z,99126.73
2017-12-31T15:21:54.674Z,99128.51
2017-12-31T15:24:22.357Z,99124.30
2017-12-31T15:26:49.907Z,99113.89
2017-12-31T15:29:17.419Z,99129.99
2017-12-31T15:31:45.018Z,99123.36
2017-12-31T15:34:12.544Z,99115.56
2017-12-31T15:36:40.125Z,99120.47
2017-12-31T15:39:07.747Z,99111.58
2017-12-31T15:41:35.291Z,99115.05
2017-12-31T15:44:02.836Z,99119.16
2017-12-31T15:46:30.474Z,99121.30
2017-12-31T15:48:58.029Z,99120.59
2017-12-31T15:51:25.680Z,99121.17
2017-12-31T15:53:53.224Z,99128.41
2017-12-31T15:56:20.882Z,99123.66
2017-12-31T15:58:48.539Z,99126.91
2017-12-31T16:01:16.131Z,99122.30
2017-12-31T16:03:43.678Z,99122.13
2017-12-31T16:06:11.252Z,99115.21
2017-12-31T16:08:38.824Z,99110.80
2017-12-31T16:11:06.339Z,99105.08
2017-12-31T16:13:33.900Z,99108.89
2017-12-31T16:16:01.549Z,99103.83
2017-12-31T16:18:29.338Z,99096.52
2017-12-31T16:20:57.067Z,99093.58
2017-12-31T16:23:24.591Z,99080.09
2017-12-31T16:25:52.340Z,99085.86
2017-12-31T16:28:19.869Z,99081.37
2017-12-31T16:30:47.420Z,99079.97
2017-12-31T16:33:15.049Z,99074.88
2017-12-31T16:35:42.619Z,99067.84
2017-12-31T16:38:10.151Z,99059.36
2017-12-31T16:40:37.712Z,99055.37
2017-12-31T16:43:05.275Z,99053.39
2017-12-31T16:45:32.892Z,99049.09
2017-12-31T16:48:00.605Z,99051.68
2017-12-31T16:50:28.168Z,99052.73
2017-12-31T16:52:55.754Z,99048.30
2017-12-31T16:55:23.364Z,99029.62
2017-12-31T16:57:50.924Z,99035.75
2017-12-31T17:00:18.470Z,99019.44
2017-12-31T17:02:46.024Z,99016.28
2017-12-31T17:05:13.542Z,99022.43
2017-12-31T17:07:41.357Z,99037.16
2017-12-31T17:10:09.084Z,99052.98
2017-12-31T17:12:36.760Z,99054.73
2017-12-31T17:15:04.733Z,99054.58
2017-12-31T17:17:32.387Z,99049.53
2017-12-31T17:19:59.948Z,99043.83
2017-12-31T17:22:27.505Z,99047.03
2017-12-31T17:24:55.222Z,99039.49
2017-12-31T17:27:22.899Z,99045.67
2017-12-31T17:29:50.445Z,99029.16
2017-12-31T17:32:18.009Z,99031.88
2017-12-31T17:34:45.528Z,99046.14
2017-12-31T17:37:13.068Z,99045.47
2017-12-31T17:39:40.876Z,99039.19
2017-12-31T17:42:08.422Z,99038.05
2017-12-31T17:44:36.002Z,99038.77
2017-12-31T17:47:03.559Z,99039.63
2017-12-31T17:49:31.112Z,99032.55
2017-12-31T17:51:58.714Z,99026.75
2017-12-31T17:54:26.260Z,99022.78
2017-12-31T17:56:53.780Z,99023.64
2017-12-31T17:59:21.339Z,99012.38
2017-12-31T18:01:49.138Z,99013.77
2017-12-31T18:04:16.711Z,99015.11
2017-12-31T18:06:44.251Z,99015.06
2017-12-31T18:09:11.828Z,99013.02
2017-12-31T18:11:39.360Z,99020.41
2017-12-31T18:14:06.946Z,99012.88
2017-12-31T18:16:34.566Z,99004.17
2017-12-31T18:19:02.158Z,99013.70
2017-12-31T18:21:29.749Z,99009.44
2017-12-31T18:23:57.279Z,99015.53
2017-12-31T18:26:24.791Z,99009.79
2017-12-31T18:28:52.324Z,99008.56
2017-12-31T18:31:20.018Z,99013.15
2017-12-31T18:33:47.788Z,99004.39
2017-12-31T18:36:15.332Z,99010.05
2017-12-31T18:38:42.869Z,99013.13
2017-12-31T18:41:10.611Z,99009.75
2017-12-31T18:43:38.155Z,99016.18
2017-12-31T18:46:05.672Z,99024.11
2017-12-31T18:48:33.256Z,99018.82
2017-12-31T18:51:03.501Z,99017.74
2017-12-31T18:53:31.159Z,99024.09
2017-12-31T18:56:00.151Z,99032.63
2017-12-31T18:58:29.846Z,99018.26
2017-12-31T19:00:58.768Z,99008.53
2017-12-31T19:03:26.941Z,99008.20
2017-12-31T19:05:54.476Z,99015.67
2017-12-31T19:08:22.048Z,98999.86
2017-12-31T19:10:49.588Z,99004.38
2017-12-31T19:13:17.152Z,99001.89
2017-12-31T19:15:44.740Z,98990.84
2017-12-31T19:18:12.275Z,98994.33
2017-12-31T19:20:39.795Z,98991.45
2017-12-31T19:23:07.376Z,98983.95
2017-12-31T19:25:34.888Z,98982.84
2017-12-31T19:28:02.439Z,98973.38
2017-12-31T19:30:29.992Z,98969.73
2017-12-31T19:32:57.634Z,98978.69
2017-12-31T19:35:25.233Z,98974.57
2017-12-31T19:37:52.884Z,98977.02
2017-12-31T19:40:20.431Z,98978.86
2017-12-31T19:42:48.133Z,98971.37
2017-12-31T19:45:15.677Z,98969.03
2017-12-31T19:47:43.276Z,98973.62
2017-12-31T19:50:10.831Z,98969.00
2017-12-31T19:52:38.349Z,98972.86
2017-12-31T19:55:05.880Z,98972.09
2017-12-31T19:57:33.562Z,98970.77
2017-12-31T20:00:01.116Z,98965.00
2017-12-31T20:02:28.667Z,98966.50
2017-12-31T20:04:56.241Z,98969.00
2017-12-31T20:07:23.801Z,98968.66
2017-12-31T20:09:51.376Z,98968.09
2017-12-31T20:12:18.908Z,98968.25
2017-12-31T20:14:46.504Z,98959.78
2017-12-31T20:17:14.060Z,98961.39
2017-12-31T20:19:41.621Z,98961.41
2017-12-31T20:22:09.196Z,98954.56
2017-12-31T20:24:36.767Z,98961.00
2017-12-31T20:27:04.335Z,98960.01
2017-12-31T20:29:31.875Z,98963.22
2017-12-31T20:31:59.421Z,98967.34
2017-12-31T20:34:27.013Z,98967.52
2017-12-31T20:36:54.565Z,98963.42
2017-12-31T20:39:22.211Z,98960.09
2017-12-31T20:41:50.278Z,98964.91
2017-12-31T20:44:17.973Z,98966.86
2017-12-31T20:46:45.601Z,98955.17
2017-12-31T20:49:13.149Z,98949.83
2017-12-31T20:51:40.782Z,98944.16
2017-12-31T20:54:08.347Z,98946.03
2017-12-31T20:56:35.912Z,98931.53
2017-12-31T20:59:03.470Z,98931.45
2017-12-31T21:01:31.096Z,98927.23
2017-12-31T21:03:58.659Z,98939.84
2017-12-31T21:06:26.208Z,98939.80
2017-12-31T21:08:53.731Z,98935.83
2017-12-31T21:11:21.270Z,98946.17
2017-12-31T21:13:48.810Z,98941.20
2017-12-31T21:16:16.319Z,98947.22
2017-12-31T21:18:43.880Z,98943.60
2017-12-31T21:21:11.416Z,98935.83
2017-12-31T21:23:38.992Z,98940.21
2017-12-31T21:26:06.526Z,98940.70
2017-12-31T21:28:34.071Z,98942.28
2017-12-31T21:31:01.698Z,98935.81
2017-12-31T21:33:29.229Z,98945.41
2017-12-31T21:35:56.764Z,98935.86
2017-12-31T21:38:24.355Z,98928.89
2017-12-31T21:40:51.902Z,98938.64
2017-12-31T21:43:19.415Z,98945.42
2017-12-31T21:45:46.984Z,98944.90
2017-12-31T21:48:14.524Z,98945.53
2017-12-31T21:50:42.076Z,98936.80
2017-12-31T21:53:09.671Z,98943.39
2017-12-31T21:55:37.213Z,98945.86
2017-12-31T21:58:04.765Z,98946.11
2017-12-31T22:00:32.418Z,98960.83
2017-12-31T22:02:59.935Z,98959.67
2017-12-31T22:05:27.541Z,98968.27
2017-12-31T22:07:55.062Z,98976.90
2017-12-31T22:10:22.594Z,98982.77
2017-12-31T22:12:50.129Z,98982.58
2017-12-31T22:15:17.736Z,98985.69
2017-12-31T22:17:45.272Z,98988.51
2017-12-31T22:20:12.876Z,99008.36
2017-12-31T22:22:40.416Z,99009.45
2017-12-31T22:25:07.956Z,99005.78
2017-12-31T22:27:35.551Z,99004.01
2017-12-31T22:30:03.115Z,99001.08
2017-12-31T22:32:30.775Z,99004.58
2017-12-31T22:34:58.331Z,99008.81
2017-12-31T22:37:25.842Z,99010.91
2017-12-31T22:39:53.487Z,99004.91
2017-12-31T22:42:21.025Z,98990.01
2017-12-31T22:44:48.622Z,98995.89
2017-12-31T22:47:16.187Z,98993.08
2017-12-31T22:49:43.732Z,98994.43
2017-12-31T22:52:11.315Z,99002.34
2017-12-31T22:54:38.846Z,99006.73
2017-12-31T22:57:06.610Z,99014.33
2017-12-31T22:59:34.174Z,99018.08
2017-12-31T23:02:01.742Z,99024.51
2017-12-31T23:04:29.302Z,98998.78
2017-12-31T23:06:56.839Z,99006.17
2017-12-31T23:09:24.460Z,99009.19
2017-12-31T23:11:52.028Z,99010.05
2017-12-31T23:14:19.767Z,99019.33
2017-12-31T23:16:47.291Z,99020.05
2017-12-31T23:19:14.823Z,99010.69
2017-12-31T23:21:42.383Z,99009.11
2017-12-31T23:24:09.967Z,99015.61
2017-12-31T23:26:37.522Z,99006.01
2017-12-31T23:29:05.038Z,98997.42
2017-12-31T23:31:32.646Z,98998.36
2017-12-31T23:34:00.205Z,99007.77
2017-12-31T23:36:27.738Z,99008.15
2017-12-31T23:38:55.342Z,99013.53
2017-12-31T23:41:22.917Z,99017.69
2017-12-31T23:46:29.122Z,99007.91
2017-12-31T23:48:56.686Z,99010.42
2017-12-31T23:51:24.269Z,99013.57
2017-12-31T23:53:51.824Z,99003.95
2017-12-31T23:56:19.368Z,99001.67
2017-12-31T23:58:46.981Z,99002.23
